createdAt,value
2022-10-19T00:00:00.387Z,36.32
2022-10-19T00:02:46.141Z,36.41
2022-10-19T00:05:31.879Z,36.16
2022-10-19T00:08:17.602Z,36.45
2022-10-19T00:11:03.446Z,36.40
2022-10-19T00:13:49.435Z,36.29
2022-10-19T00:16:37.707Z,36.70
2022-10-19T00:19:25.911Z,36.34
2022-10-19T00:22:13.919Z,36.50
2022-10-19T00:24:59.768Z,36.16
2022-10-19T00:27:45.488Z,36.54
2022-10-19T00:30:31.462Z,36.70
2022-10-19T00:33:23.644Z,36.04
2022-10-19T00:36:26.146Z,36.83
2022-10-19T00:39:14.458Z,36.76
2022-10-19T00:42:00.355Z,36.57
2022-10-19T00:44:49.299Z,37.23
2022-10-19T00:47:35.898Z,36.81
2022-10-19T00:50:22.659Z,36.74
2022-10-19T00:53:09.426Z,36.42
2022-10-19T00:55:55.926Z,36.71
2022-10-19T00:58:43.631Z,36.91
2022-10-19T01:01:29.615Z,36.63
2022-10-19T01:04:15.803Z,36.93
2022-10-19T01:07:03.598Z,37.02
2022-10-19T01:09:49.242Z,36.79
2022-10-19T01:12:52.390Z,37.03
2022-10-19T01:15:44.528Z,36.93
2022-10-19T01:18:34.220Z,36.86
2022-10-19T01:21:29.469Z,37.50
2022-10-19T01:24:42.199Z,37.48
2022-10-19T01:27:48.003Z,37.23
2022-10-19T01:30:36.741Z,37.16
2022-10-19T01:33:35.714Z,37.06
2022-10-19T01:36:29.248Z,37.22
2022-10-19T01:39:28.324Z,36.92
2022-10-19T01:42:14.054Z,37.59
2022-10-19T01:44:59.737Z,37.59
2022-10-19T01:47:50.473Z,37.26
2022-10-19T01:50:43.705Z,37.51
2022-10-19T01:53:33.470Z,37.00
2022-10-19T01:56:22.327Z,37.33
2022-10-19T01:59:09.780Z,37.55
2022-10-19T02:01:55.995Z,37.35
2022-10-19T02:04:42.179Z,37.62
2022-10-19T02:07:28.230Z,37.24
2022-10-19T02:13:05.577Z,37.36
2022-10-19T02:15:53.361Z,38.16
2022-10-19T02:18:42.269Z,37.60
2022-10-19T02:21:28.375Z,37.98
2022-10-19T02:24:14.343Z,37.98
2022-10-19T02:27:01.790Z,37.90
2022-10-19T02:29:47.589Z,37.79
2022-10-19T02:32:33.661Z,37.75
2022-10-19T02:35:19.607Z,37.43
2022-10-19T02:38:06.248Z,37.97
2022-10-19T02:41:05.520Z,38.12
2022-10-19T02:43:56.261Z,37.78
2022-10-19T02:46:58.792Z,38.23
2022-10-19T02:49:45.370Z,37.55
2022-10-19T02:52:31.121Z,37.73
2022-10-19T02:55:16.995Z,38.13
2022-10-19T02:58:03.066Z,38.22
2022-10-19T03:00:49.086Z,38.03
2022-10-19T03:03:35.157Z,38.08
2022-10-19T03:06:20.777Z,38.10
2022-10-19T03:09:06.721Z,38.21
2022-10-19T03:11:52.790Z,37.99
2022-10-19T03:14:38.795Z,38.24
2022-10-19T03:17:24.478Z,38.73
2022-10-19T03:20:11.095Z,38.38
2022-10-19T03:22:57.118Z,38.28
2022-10-19T03:25:42.845Z,38.69
2022-10-19T03:28:29.129Z,38.57
2022-10-19T03:31:15.238Z,38.44
2022-10-19T03:34:02.107Z,38.37
2022-10-19T03:36:47.715Z,38.36
2022-10-19T03:39:33.438Z,38.76
2022-10-19T03:42:19.490Z,38.65
2022-10-19T03:45:05.790Z,38.29
2022-10-19T03:47:52.208Z,38.73
2022-10-19T03:50:38.299Z,39.07
2022-10-19T03:53:24.005Z,38.68
2022-10-19T03:56:18.144Z,38.39
2022-10-19T03:59:05.428Z,38.79
2022-10-19T04:01:51.385Z,38.95
2022-10-19T04:04:37.213Z,38.45
2022-10-19T04:07:23.105Z,38.46
2022-10-19T04:10:08.995Z,38.77
2022-10-19T04:12:54.898Z,38.57
2022-10-19T04:15:40.554Z,38.89
2022-10-19T04:18:26.413Z,38.73
2022-10-19T04:21:32.121Z,39.44
2022-10-19T04:24:19.017Z,39.01
2022-10-19T04:27:04.705Z,38.77
2022-10-19T04:29:50.416Z,39.24
2022-10-19T04:32:36.117Z,38.69
2022-10-19T04:35:21.930Z,38.82
2022-10-19T04:38:07.594Z,39.28
2022-10-19T04:40:53.306Z,39.01
2022-10-19T04:43:39.377Z,39.29
2022-10-19T04:46:26.250Z,38.96
2022-10-19T04:49:14.147Z,39.38
2022-10-19T04:52:03.529Z,39.13
2022-10-19T04:54:49.342Z,39.36
2022-10-19T04:57:35.353Z,39.22
2022-10-19T05:00:21.622Z,38.92
2022-10-19T05:03:07.365Z,39.20
2022-10-19T05:05:52.999Z,39.22
2022-10-19T05:08:39.225Z,39.22
2022-10-19T05:11:25.485Z,39.13
2022-10-19T05:14:11.328Z,39.38
2022-10-19T05:16:56.935Z,39.44
2022-10-19T05:19:42.885Z,39.48
2022-10-19T05:22:28.654Z,39.51
2022-10-19T05:25:14.469Z,39.15
2022-10-19T05:28:00.208Z,39.17
2022-10-19T05:30:48.948Z,39.50
2022-10-19T05:33:35.512Z,39.67
2022-10-19T05:36:28.017Z,39.86
2022-10-19T05:39:16.970Z,39.27
2022-10-19T05:42:02.765Z,39.56
2022-10-19T05:44:48.709Z,39.40
2022-10-19T05:47:34.962Z,39.73
2022-10-19T05:50:24.596Z,39.79
2022-10-19T05:53:10.365Z,39.67
2022-10-19T05:55:56.265Z,39.31
2022-10-19T05:58:42.498Z,39.81
2022-10-19T06:01:29.754Z,39.79
2022-10-19T06:07:03.096Z,39.51
2022-10-19T06:09:48.971Z,39.80
2022-10-19T06:12:34.978Z,39.65
2022-10-19T06:15:20.672Z,39.92
2022-10-19T06:18:07.901Z,39.71
2022-10-19T06:20:54.818Z,40.02
2022-10-19T06:26:34.396Z,39.77
2022-10-19T06:29:20.050Z,39.64
2022-10-19T06:32:06.032Z,39.86
2022-10-19T06:34:55.738Z,39.92
2022-10-19T06:37:42.999Z,40.09
2022-10-19T06:40:28.832Z,40.33
2022-10-19T06:43:15.869Z,39.75
2022-10-19T06:46:06.420Z,39.69
2022-10-19T06:49:00.024Z,40.16
2022-10-19T06:51:45.933Z,40.11
2022-10-19T06:54:31.780Z,40.21
2022-10-19T06:57:17.994Z,39.61
2022-10-19T07:00:05.731Z,40.16
2022-10-19T07:02:51.620Z,39.96
2022-10-19T07:05:37.396Z,40.39
2022-10-19T07:08:23.282Z,39.81
2022-10-19T07:11:11.984Z,40.24
2022-10-19T07:13:57.979Z,40.42
2022-10-19T07:16:43.565Z,39.65
2022-10-19T07:19:29.264Z,39.82
2022-10-19T07:22:20.358Z,40.17
2022-10-19T07:25:09.975Z,39.80
2022-10-19T07:27:56.205Z,40.40
2022-10-19T07:30:41.974Z,40.15
2022-10-19T07:33:29.023Z,40.55
2022-10-19T07:36:15.119Z,40.49
2022-10-19T07:39:02.348Z,40.37
2022-10-19T07:41:48.370Z,40.65
2022-10-19T07:44:34.119Z,40.46
2022-10-19T07:47:20.314Z,40.38
2022-10-19T07:50:06.502Z,40.24
2022-10-19T07:52:52.853Z,40.25
2022-10-19T07:55:38.871Z,40.27
2022-10-19T07:58:24.461Z,40.81
2022-10-19T08:01:18.852Z,40.42
2022-10-19T08:07:10.929Z,41.04
2022-10-19T08:09:57.003Z,40.76
2022-10-19T08:12:43.092Z,40.89
2022-10-19T08:15:30.212Z,40.22
2022-10-19T08:18:19.417Z,40.78
2022-10-19T08:21:05.406Z,40.44
2022-10-19T08:23:51.517Z,40.74
2022-10-19T08:26:38.963Z,40.63
2022-10-19T08:29:26.597Z,40.27
2022-10-19T08:32:14.952Z,40.47
2022-10-19T08:35:00.710Z,40.35
2022-10-19T08:37:46.742Z,40.30
2022-10-19T08:40:32.777Z,40.37
2022-10-19T08:43:32.958Z,40.36
2022-10-19T08:46:53.892Z,40.59
2022-10-19T08:49:39.854Z,40.22
2022-10-19T08:52:41.908Z,40.18
2022-10-19T08:56:00.869Z,39.93
2022-10-19T08:59:06.341Z,39.70
2022-10-19T09:01:58.520Z,39.82
2022-10-19T09:05:10.071Z,39.90
2022-10-19T09:07:55.999Z,39.77
2022-10-19T09:10:44.589Z,39.41
2022-10-19T09:14:04.356Z,39.58
2022-10-19T09:17:01.853Z,39.09
2022-10-19T09:19:47.744Z,38.98
2022-10-19T09:22:35.274Z,38.96
2022-10-19T09:25:22.683Z,39.18
2022-10-19T09:28:21.761Z,39.22
2022-10-19T09:31:13.641Z,39.06
2022-10-19T09:34:12.225Z,38.94
2022-10-19T09:36:59.240Z,38.92
2022-10-19T09:39:52.344Z,39.02
2022-10-19T09:42:42.396Z,38.66
2022-10-19T09:45:46.458Z,38.86
2022-10-19T09:48:52.723Z,38.92
2022-10-19T09:51:53.016Z,38.58
2022-10-19T09:54:39.622Z,38.40
2022-10-19T09:57:25.972Z,38.36
2022-10-19T10:00:24.390Z,38.32
2022-10-19T10:03:27.789Z,38.42
2022-10-19T10:06:17.613Z,38.31
2022-10-19T10:09:03.933Z,38.35
2022-10-19T10:11:51.104Z,38.05
2022-10-19T10:14:40.929Z,38.12
2022-10-19T10:17:30.587Z,38.07
2022-10-19T10:20:23.621Z,38.02
2022-10-19T10:23:24.810Z,37.87
2022-10-19T10:26:20.012Z,38.02
2022-10-19T10:29:24.281Z,37.80
2022-10-19T10:32:14.218Z,37.60
2022-10-19T10:35:02.123Z,37.44
2022-10-19T10:37:48.608Z,37.17
2022-10-19T10:40:34.747Z,36.85
2022-10-19T10:43:30.172Z,36.74
2022-10-19T10:46:21.265Z,36.69
2022-10-19T10:49:08.797Z,36.46
2022-10-19T10:52:00.766Z,36.29
2022-10-19T10:55:21.174Z,36.15
2022-10-19T10:58:18.769Z,35.80
2022-10-19T11:01:08.050Z,35.60
2022-10-19T11:04:11.972Z,35.14
2022-10-19T11:07:20.707Z,34.72
2022-10-19T11:10:49.941Z,34.09
2022-10-19T11:13:56.098Z,33.20
2022-10-19T11:16:47.067Z,31.67
2022-10-19T11:19:41.254Z,30.42
2022-10-19T11:22:35.327Z,29.17
2022-10-19T11:25:26.808Z,27.69
2022-10-19T11:28:55.065Z,26.69
2022-10-19T11:31:45.950Z,24.82
2022-10-19T11:34:37.898Z,24.03
2022-10-19T11:38:18.215Z,23.04
2022-10-19T11:41:17.421Z,21.93
2022-10-19T11:44:22.712Z,21.61
2022-10-19T11:47:34.010Z,20.97
2022-10-19T11:50:32.471Z,20.56
2022-10-19T11:53:18.014Z,20.30
2022-10-19T11:56:08.537Z,19.99
2022-10-19T11:59:14.892Z,19.79
2022-10-19T12:02:19.472Z,19.69
2022-10-19T12:05:17.801Z,19.57
2022-10-19T12:11:11.560Z,19.06
2022-10-19T12:14:03.425Z,19.35
2022-10-19T12:16:53.390Z,18.83
2022-10-19T12:19:50.686Z,18.51
2022-10-19T12:22:37.767Z,18.73
2022-10-19T12:25:23.894Z,18.65
2022-10-19T12:28:14.421Z,19.02
2022-10-19T12:31:01.900Z,18.73
2022-10-19T12:33:56.810Z,18.60
2022-10-19T12:37:07.121Z,18.68
2022-10-19T12:40:05.262Z,18.81
2022-10-19T12:43:16.748Z,18.79
2022-10-19T12:46:15.387Z,18.85
2022-10-19T12:49:27.823Z,18.64
2022-10-19T12:52:15.454Z,18.93
2022-10-19T12:55:16.747Z,18.89
2022-10-19T12:58:17.117Z,19.51
2022-10-19T13:01:05.471Z,19.37
2022-10-19T13:04:06.732Z,19.50
2022-10-19T13:07:08.232Z,19.42
2022-10-19T13:10:01.183Z,19.53
2022-10-19T13:12:48.184Z,19.71
2022-10-19T13:15:36.936Z,19.73
2022-10-19T13:19:03.374Z,19.82
2022-10-19T13:22:35.709Z,19.87
2022-10-19T13:26:12.300Z,19.93
2022-10-19T13:28:58.259Z,20.23
2022-10-19T13:31:44.058Z,19.74
2022-10-19T13:34:29.747Z,19.45
2022-10-19T13:37:18.349Z,18.58
2022-10-19T13:40:23.572Z,18.46
2022-10-19T13:43:24.993Z,17.97
2022-10-19T13:46:20.435Z,17.57
2022-10-19T13:49:27.763Z,17.55
2022-10-19T13:53:01.260Z,16.95
2022-10-19T13:56:00.264Z,17.14
2022-10-19T13:59:11.255Z,17.08
2022-10-19T14:01:56.991Z,17.53
2022-10-19T14:04:57.100Z,17.13
2022-10-19T14:07:48.895Z,17.44
2022-10-19T14:10:56.353Z,17.73
2022-10-19T14:13:41.498Z,17.79
2022-10-19T14:16:27.463Z,17.86
2022-10-19T14:19:14.621Z,18.20
2022-10-19T14:22:02.869Z,19.03
2022-10-19T14:24:49.120Z,19.39
2022-10-19T14:27:35.624Z,19.79
2022-10-19T14:30:35.487Z,20.04
2022-10-19T14:33:21.813Z,20.75
2022-10-19T14:36:15.017Z,20.82
2022-10-19T14:39:01.429Z,21.29
2022-10-19T14:41:47.193Z,21.88
2022-10-19T14:44:35.234Z,21.78
2022-10-19T14:47:30.404Z,22.31
2022-10-19T14:50:16.509Z,22.27
2022-10-19T14:53:24.344Z,22.65
2022-10-19T14:56:19.196Z,22.86
2022-10-19T14:59:16.708Z,22.97
2022-10-19T15:02:10.137Z,23.29
2022-10-19T15:04:58.564Z,23.43
2022-10-19T15:07:44.417Z,23.53
2022-10-19T15:10:41.602Z,23.75
2022-10-19T15:13:32.727Z,23.92
2022-10-19T15:16:44.625Z,23.94
2022-10-19T15:19:32.675Z,24.24
2022-10-19T15:22:20.121Z,24.30
2022-10-19T15:25:08.807Z,24.55
2022-10-19T15:27:54.663Z,24.65
2022-10-19T15:30:40.561Z,24.69
2022-10-19T15:33:26.617Z,25.06
2022-10-19T15:36:19.733Z,25.05
2022-10-19T15:39:24.686Z,24.98
2022-10-19T15:42:24.384Z,25.34
2022-10-19T15:45:29.053Z,25.39
2022-10-19T15:48:24.203Z,25.56
2022-10-19T15:51:25.436Z,25.66
2022-10-19T15:54:12.379Z,25.81
2022-10-19T15:56:58.091Z,25.94
2022-10-19T15:59:43.912Z,26.15
2022-10-19T16:02:29.960Z,26.24
2022-10-19T16:05:15.964Z,26.69
2022-10-19T16:08:01.779Z,26.60
2022-10-19T16:10:47.588Z,26.43
2022-10-19T16:13:33.644Z,26.72
2022-10-19T16:16:25.549Z,26.79
2022-10-19T16:19:11.174Z,27.01
2022-10-19T16:21:56.933Z,26.92
2022-10-19T16:24:42.748Z,27.10
2022-10-19T16:27:28.418Z,27.26
2022-10-19T16:30:14.333Z,27.41
2022-10-19T16:33:00.410Z,27.42
2022-10-19T16:35:46.180Z,27.59
2022-10-19T16:38:31.898Z,27.61
2022-10-19T16:41:17.681Z,27.75
2022-10-19T16:44:03.670Z,27.82
2022-10-19T16:46:49.480Z,27.84
2022-10-19T16:49:35.629Z,27.90
2022-10-19T16:52:21.331Z,28.11
2022-10-19T16:55:07.518Z,28.29
2022-10-19T16:57:53.461Z,28.18
2022-10-19T17:00:39.589Z,28.33
2022-10-19T17:03:25.600Z,28.35
2022-10-19T17:06:11.772Z,28.65
2022-10-19T17:12:05.469Z,28.95
2022-10-19T17:14:51.425Z,28.88
2022-10-19T17:17:37.812Z,28.96
2022-10-19T17:20:24.030Z,28.99
2022-10-19T17:23:10.417Z,28.99
2022-10-19T17:25:56.258Z,29.12
2022-10-19T17:28:43.631Z,29.43
2022-10-19T17:31:30.347Z,29.32
2022-10-19T17:34:17.518Z,29.51
2022-10-19T17:37:03.517Z,29.42
2022-10-19T17:39:51.092Z,29.65
2022-10-19T17:42:37.145Z,29.82
2022-10-19T17:45:23.386Z,29.96
2022-10-19T17:48:09.356Z,29.77
2022-10-19T17:51:03.873Z,30.18
2022-10-19T17:53:51.978Z,30.18
2022-10-19T17:56:38.444Z,30.02
2022-10-19T17:59:34.600Z,30.42
2022-10-19T18:02:22.783Z,30.27
2022-10-19T18:05:09.473Z,30.41
2022-10-19T18:07:55.375Z,30.32
2022-10-19T18:10:41.903Z,30.36
2022-10-19T18:13:28.824Z,30.41
2022-10-19T18:16:15.994Z,30.75
2022-10-19T18:19:03.058Z,30.75
2022-10-19T18:21:49.247Z,30.64
2022-10-19T18:24:35.047Z,30.93
2022-10-19T18:27:20.973Z,30.85
2022-10-19T18:30:07.350Z,30.77
2022-10-19T18:32:56.217Z,31.16
2022-10-19T18:35:42.389Z,30.96
2022-10-19T18:38:28.479Z,31.00
2022-10-19T18:44:06.882Z,31.26
2022-10-19T18:46:52.755Z,31.23
2022-10-19T18:49:38.509Z,31.42
2022-10-19T18:52:24.479Z,31.56
2022-10-19T18:55:10.504Z,31.42
2022-10-19T18:57:56.439Z,31.46
2022-10-19T19:00:45.614Z,31.63
2022-10-19T19:03:32.365Z,31.46
2022-10-19T19:06:25.644Z,31.46
2022-10-19T19:09:13.167Z,31.44
2022-10-19T19:11:59.502Z,31.77
2022-10-19T19:14:45.734Z,31.77
2022-10-19T19:17:31.425Z,31.71
2022-10-19T19:20:17.211Z,32.11
2022-10-19T19:23:03.190Z,31.88
2022-10-19T19:25:49.160Z,31.88
2022-10-19T19:28:37.784Z,32.03
2022-10-19T19:31:27.142Z,32.20
2022-10-19T19:34:13.366Z,32.46
2022-10-19T19:36:59.446Z,32.39
2022-10-19T19:39:45.389Z,32.32
2022-10-19T19:42:31.452Z,32.40
2022-10-19T19:45:17.174Z,32.53
2022-10-19T19:48:03.160Z,32.35
2022-10-19T19:50:49.462Z,32.33
2022-10-19T19:53:36.683Z,32.47
2022-10-19T19:56:22.817Z,32.49
2022-10-19T19:59:11.205Z,32.91
2022-10-19T20:01:57.179Z,32.61
2022-10-19T20:04:43.234Z,32.90
2022-10-19T20:07:29.596Z,32.84
2022-10-19T20:10:16.261Z,32.95
2022-10-19T20:13:02.319Z,32.96
2022-10-19T20:15:48.043Z,33.28
2022-10-19T20:18:34.012Z,33.25
2022-10-19T20:21:23.649Z,33.45
2022-10-19T20:24:09.991Z,33.10
2022-10-19T20:26:57.103Z,33.33
2022-10-19T20:29:43.379Z,33.34
2022-10-19T20:32:29.920Z,33.42
2022-10-19T20:35:16.154Z,33.43
2022-10-19T20:38:03.847Z,33.69
2022-10-19T20:40:49.827Z,33.66
2022-10-19T20:43:37.119Z,33.76
2022-10-19T20:46:26.330Z,33.91
2022-10-19T20:49:12.770Z,33.51
2022-10-19T20:51:58.917Z,33.89
2022-10-19T20:54:45.051Z,34.04
2022-10-19T20:57:31.064Z,33.93
2022-10-19T21:00:17.252Z,34.02
2022-10-19T21:03:03.470Z,34.06
2022-10-19T21:05:49.449Z,34.31
2022-10-19T21:08:36.234Z,34.48
2022-10-19T21:11:27.606Z,34.51
2022-10-19T21:14:15.572Z,34.63
2022-10-19T21:17:01.561Z,34.29
2022-10-19T21:19:47.397Z,34.73
2022-10-19T21:22:39.064Z,34.50
2022-10-19T21:25:25.298Z,34.64
2022-10-19T21:28:11.118Z,34.63
2022-10-19T21:30:57.070Z,34.75
2022-10-19T21:33:43.395Z,34.95
2022-10-19T21:36:30.220Z,34.77
2022-10-19T21:39:16.694Z,35.10
2022-10-19T21:42:02.731Z,34.86
2022-10-19T21:44:51.419Z,34.87
2022-10-19T21:47:40.113Z,35.03
2022-10-19T21:50:26.084Z,35.31
2022-10-19T21:53:12.077Z,34.85
2022-10-19T21:55:59.482Z,35.15
2022-10-19T21:58:50.096Z,35.38
2022-10-19T22:01:40.157Z,35.50
2022-10-19T22:04:27.435Z,35.09
2022-10-19T22:07:13.420Z,35.54
2022-10-19T22:09:59.130Z,35.29
2022-10-19T22:12:44.963Z,35.48
2022-10-19T22:15:30.849Z,35.58
2022-10-19T22:18:16.481Z,35.59
2022-10-19T22:21:08.488Z,35.70
2022-10-19T22:24:00.456Z,35.73
2022-10-19T22:26:48.145Z,35.42
2022-10-19T22:29:34.231Z,35.68
2022-10-19T22:32:22.030Z,35.82
2022-10-19T22:35:08.004Z,35.92
2022-10-19T22:37:53.951Z,35.63
2022-10-19T22:40:39.547Z,35.90
2022-10-19T22:43:25.387Z,35.97
2022-10-19T22:46:11.178Z,36.00
2022-10-19T22:48:56.883Z,36.19
2022-10-19T22:51:42.542Z,35.95
2022-10-19T22:54:28.246Z,35.79
2022-10-19T22:57:14.219Z,36.23
2022-10-19T23:00:00.275Z,36.13
2022-10-19T23:02:46.049Z,36.28
2022-10-19T23:05:32.253Z,36.36
2022-10-19T23:08:18.199Z,36.07
2022-10-19T23:11:04.200Z,36.26
2022-10-19T23:13:50.317Z,36.41
2022-10-19T23:16:36.170Z,36.34
2022-10-19T23:19:22.090Z,36.27
2022-10-19T23:22:07.929Z,36.61
2022-10-19T23:24:53.730Z,36.57
2022-10-19T23:27:39.653Z,36.62
2022-10-19T23:30:25.502Z,36.73
2022-10-19T23:33:17.028Z,36.69
2022-10-19T23:36:08.366Z,36.77
2022-10-19T23:38:55.298Z,36.52
2022-10-19T23:41:41.303Z,36.98
2022-10-19T23:44:26.990Z,37.04
2022-10-19T23:47:12.843Z,37.08
2022-10-19T23:49:58.485Z,36.92
2022-10-19T23:52:44.392Z,36.86
2022-10-19T23:55:30.230Z,36.74
2022-10-19T23:58:16.096Z,37.02
